Time;durP1;ratioP1;P1;durP2;ratioP2;P2;SDS_P1;SDS_P2;PMS_P1;PMS_P2;Temp;Humidity;BMP_temperature;BMP_pressure;BME280_temperature;BME280_humidity;BME280_pressure;Samples;Min_cycle;Max_cycle;Signal;HPM_P1;HPM_P2
2021/12/30 00:01:09;;;;;;;0.30;0.30;;;;;;;;;;5097068;28;20425;-72
2021/12/30 00:03:35;;;;;;;0.67;0.40;;;;;;;;;;5097008;28;20405;-72
2021/12/30 00:06:01;;;;;;;0.30;0.30;;;;;;;;;;5096689;28;20420;-72
2021/12/30 00:08:27;;;;;;;0.50;0.50;;;;;;;;;;5095603;28;20408;-73
2021/12/30 00:10:53;;;;;;;0.30;0.30;;;;;;;;;;5096421;28;20490;-73
2021/12/30 00:13:20;;;;;;;0.40;0.40;;;;;;;;;;5096581;28;20897;-72
2021/12/30 00:15:46;;;;;;;0.53;0.30;;;;;;;;;;5097608;28;20428;-73
2021/12/30 00:18:12;;;;;;;0.50;0.50;;;;;;;;;;5096419;28;20412;-72
2021/12/30 00:20:38;;;;;;;0.43;0.43;;;;;;;;;;5096386;28;20416;-72
2021/12/30 00:23:07;;;;;;;0.30;0.30;;;;;;;;;;5096400;28;20844;-73
2021/12/30 00:25:39;;;;;;;0.30;0.30;;;;;;;;;;5096637;28;20518;-73
2021/12/30 00:28:09;;;;;;;0.50;0.50;;;;;;;;;;5096585;28;20393;-72
2021/12/30 00:30:35;;;;;;;0.30;0.30;;;;;;;;;;5096399;28;20452;-73
2021/12/30 00:33:01;;;;;;;0.30;0.30;;;;;;;;;;5096166;28;20413;-72
2021/12/30 00:35:27;;;;;;;0.53;0.30;;;;;;;;;;5096409;28;20465;-72
2021/12/30 00:37:53;;;;;;;0.30;0.30;;;;;;;;;;5096102;28;20780;-72
2021/12/30 00:40:19;;;;;;;0.40;0.40;;;;;;;;;;5096124;28;20419;-72
2021/12/30 00:42:45;;;;;;;0.83;0.30;;;;;;;;;;5095967;28;20405;-72
2021/12/30 00:45:12;;;;;;;0.40;0.40;;;;;;;;;;5096008;28;20412;-73
2021/12/30 00:47:38;;;;;;;0.30;0.30;;;;;;;;;;5096033;28;20401;-72
2021/12/30 00:50:04;;;;;;;0.30;0.30;;;;;;;;;;5096049;28;20418;-72
2021/12/30 00:52:30;;;;;;;0.50;0.50;;;;;;;;;;5096011;28;20424;-73
2021/12/30 00:54:56;;;;;;;0.93;0.30;;;;;;;;;;5095659;28;20460;-72
2021/12/30 00:57:22;;;;;;;0.40;0.40;;;;;;;;;;5095608;28;20444;-72
2021/12/30 00:59:48;;;;;;;0.50;0.30;;;;;;;;;;5096284;28;20413;-73
2021/12/30 01:02:14;;;;;;;0.30;0.30;;;;;;;;;;5095885;28;20550;-73
2021/12/30 01:04:40;;;;;;;0.30;0.30;;;;;;;;;;5095294;28;20503;-73
2021/12/30 01:07:06;;;;;;;0.30;0.30;;;;;;;;;;5095083;28;20425;-72
2021/12/30 01:09:32;;;;;;;0.40;0.30;;;;;;;;;;5095711;28;20542;-72
2021/12/30 01:11:59;;;;;;;1.60;0.53;;;;;;;;;;5095866;28;20473;-72
2021/12/30 01:14:28;;;;;;;0.30;0.30;;;;;;;;;;5096022;28;20444;-72
2021/12/30 01:16:58;;;;;;;0.33;0.33;;;;;;;;;;5095347;28;20409;-72
2021/12/30 01:19:42;;;;;;;1.20;0.40;;;;;;;;;;5095907;28;20389;-72
2021/12/30 01:22:10;;;;;;;0.37;0.37;;;;;;;;;;5095541;28;20409;-73
2021/12/30 01:24:36;;;;;;;1.17;0.30;;;;;;;;;;5095183;28;20417;-72
2021/12/30 01:27:02;;;;;;;0.40;0.40;;;;;;;;;;5095141;28;20542;-72
2021/12/30 01:29:30;;;;;;;0.60;0.40;;;;;;;;;;5095064;28;20432;-72
2021/12/30 01:31:56;;;;;;;0.40;0.40;;;;;;;;;;5095071;28;20468;-72
2021/12/30 01:34:22;;;;;;;0.60;0.40;;;;;;;;;;5095520;28;20421;-72
2021/12/30 01:36:48;;;;;;;1.03;0.40;;;;;;;;;;5095148;28;20919;-73
2021/12/30 01:39:17;;;;;;;1.07;0.30;;;;;;;;;;5094873;28;20941;-72
2021/12/30 01:41:44;;;;;;;2.73;0.30;;;;;;;;;;5095201;28;20992;-74
2021/12/30 01:44:10;;;;;;;0.93;0.30;;;;;;;;;;5094725;28;20834;-72
2021/12/30 01:46:37;;;;;;;0.30;0.30;;;;;;;;;;5094810;28;20481;-72
2021/12/30 01:49:03;;;;;;;1.40;0.30;;;;;;;;;;5094766;28;20884;-73
2021/12/30 01:51:29;;;;;;;0.30;0.30;;;;;;;;;;5094769;28;20500;-72
2021/12/30 01:53:57;;;;;;;0.30;0.30;;;;;;;;;;5094758;28;20482;-74
2021/12/30 01:56:23;;;;;;;0.43;0.30;;;;;;;;;;5094939;28;20901;-73
2021/12/30 01:58:49;;;;;;;0.30;0.30;;;;;;;;;;5094505;28;20420;-73
2021/12/30 02:01:15;;;;;;;1.07;0.30;;;;;;;;;;5094387;28;20417;-72
2021/12/30 02:03:41;;;;;;;0.50;0.50;;;;;;;;;;5094469;28;20432;-72
2021/12/30 02:06:07;;;;;;;2.00;0.30;;;;;;;;;;5094269;28;20897;-72
2021/12/30 02:08:33;;;;;;;0.30;0.30;;;;;;;;;;5094531;28;20413;-72
2021/12/30 02:10:59;;;;;;;0.40;0.40;;;;;;;;;;5094366;28;20478;-72
2021/12/30 02:13:25;;;;;;;0.50;0.50;;;;;;;;;;5094390;28;20503;-73
2021/12/30 02:15:51;;;;;;;0.53;0.53;;;;;;;;;;5094097;28;20460;-73
2021/12/30 02:18:18;;;;;;;0.40;0.40;;;;;;;;;;5109358;28;20425;-72
2021/12/30 02:20:46;;;;;;;0.30;0.30;;;;;;;;;;5094564;28;20416;-73
2021/12/30 02:23:33;;;;;;;2.13;0.40;;;;;;;;;;5093972;28;20421;-72
2021/12/30 02:26:00;;;;;;;2.20;0.40;;;;;;;;;;5093967;28;20474;-73
2021/12/30 02:28:29;;;;;;;1.57;0.40;;;;;;;;;;5094208;28;20503;-72
2021/12/30 02:30:56;;;;;;;0.30;0.30;;;;;;;;;;5094099;28;20774;-73
2021/12/30 02:33:22;;;;;;;0.33;0.33;;;;;;;;;;5094104;28;20421;-73
2021/12/30 02:35:49;;;;;;;0.40;0.40;;;;;;;;;;5094049;28;20397;-73
2021/12/30 02:38:16;;;;;;;1.90;0.30;;;;;;;;;;5109484;28;20563;-73
2021/12/30 02:40:44;;;;;;;0.30;0.30;;;;;;;;;;5094108;28;20435;-72
2021/12/30 02:43:15;;;;;;;0.30;0.30;;;;;;;;;;5093635;28;20649;-72
2021/12/30 02:45:41;;;;;;;2.53;0.30;;;;;;;;;;5093680;28;20451;-73
2021/12/30 02:48:11;;;;;;;0.43;0.43;;;;;;;;;;5093867;28;20450;-74
2021/12/30 02:50:37;;;;;;;0.33;0.33;;;;;;;;;;5093782;28;21032;-72
2021/12/30 02:53:03;;;;;;;0.37;0.37;;;;;;;;;;5093513;28;20412;-73
2021/12/30 02:55:29;;;;;;;0.40;0.40;;;;;;;;;;5093347;28;20469;-72
2021/12/30 02:57:55;;;;;;;0.80;0.37;;;;;;;;;;5093419;28;20413;-73
2021/12/30 03:00:21;;;;;;;0.30;0.30;;;;;;;;;;5093536;28;20410;-74
2021/12/30 03:02:47;;;;;;;0.30;0.30;;;;;;;;;;5093405;28;20421;-72
2021/12/30 03:05:16;;;;;;;0.60;0.30;;;;;;;;;;5093592;28;20412;-72
2021/12/30 03:07:42;;;;;;;2.93;0.40;;;;;;;;;;5093253;28;20420;-72
2021/12/30 03:10:13;;;;;;;0.30;0.30;;;;;;;;;;5093174;28;20447;-73
2021/12/30 03:12:39;;;;;;;0.30;0.30;;;;;;;;;;5093491;28;20496;-72
2021/12/30 03:15:05;;;;;;;0.30;0.30;;;;;;;;;;5093200;28;20440;-74
2021/12/30 03:17:31;;;;;;;0.30;0.30;;;;;;;;;;5108785;28;20428;-72
2021/12/30 03:19:57;;;;;;;0.30;0.30;;;;;;;;;;5093173;28;20420;-73
2021/12/30 03:22:24;;;;;;;0.40;0.40;;;;;;;;;;5093130;28;20460;-76
2021/12/30 03:24:50;;;;;;;0.30;0.30;;;;;;;;;;5093068;28;20413;-72
2021/12/30 03:27:16;;;;;;;1.53;0.63;;;;;;;;;;5093130;28;20431;-72
2021/12/30 03:29:42;;;;;;;0.63;0.33;;;;;;;;;;5092709;28;20417;-72
2021/12/30 03:32:08;;;;;;;0.30;0.30;;;;;;;;;;5093234;28;20463;-73
2021/12/30 03:34:34;;;;;;;0.30;0.30;;;;;;;;;;5092938;28;20943;-72
2021/12/30 03:37:00;;;;;;;0.30;0.30;;;;;;;;;;5092853;28;20485;-72
2021/12/30 03:39:25;;;;;;;0.30;0.30;;;;;;;;;;5093515;28;20508;-72
2021/12/30 03:41:51;;;;;;;0.30;0.30;;;;;;;;;;5093156;28;20412;-72
2021/12/30 03:44:17;;;;;;;0.30;0.30;;;;;;;;;;5093025;28;20759;-72
2021/12/30 03:46:43;;;;;;;0.40;0.40;;;;;;;;;;5092955;28;20423;-73
2021/12/30 03:49:10;;;;;;;0.30;0.30;;;;;;;;;;5092956;28;20881;-73
2021/12/30 03:51:39;;;;;;;0.30;0.30;;;;;;;;;;5093107;28;20475;-73
2021/12/30 03:54:05;;;;;;;0.30;0.30;;;;;;;;;;5092690;28;20471;-73
2021/12/30 03:56:31;;;;;;;0.30;0.30;;;;;;;;;;5092808;28;20420;-72
2021/12/30 03:58:58;;;;;;;0.30;0.30;;;;;;;;;;5092725;28;20440;-72
2021/12/30 04:01:25;;;;;;;0.30;0.30;;;;;;;;;;5092753;28;20429;-72
2021/12/30 04:03:52;;;;;;;0.30;0.30;;;;;;;;;;5092985;28;20401;-72
2021/12/30 04:06:19;;;;;;;0.70;0.37;;;;;;;;;;5092948;28;20416;-74
2021/12/30 04:08:45;;;;;;;2.10;0.50;;;;;;;;;;5092992;28;20411;-73
2021/12/30 04:11:11;;;;;;;0.30;0.30;;;;;;;;;;5092564;28;20495;-73
2021/12/30 04:13:37;;;;;;;0.30;0.30;;;;;;;;;;5092953;28;20919;-74
2021/12/30 04:16:03;;;;;;;0.40;0.40;;;;;;;;;;5092975;28;20417;-74
2021/12/30 04:18:29;;;;;;;0.30;0.30;;;;;;;;;;5092788;28;20462;-73
2021/12/30 04:20:55;;;;;;;0.30;0.30;;;;;;;;;;5092905;28;20800;-72
2021/12/30 04:23:21;;;;;;;0.30;0.30;;;;;;;;;;5092894;28;20440;-74
2021/12/30 04:25:47;;;;;;;0.30;0.30;;;;;;;;;;5092920;28;20924;-73
2021/12/30 04:28:13;;;;;;;0.30;0.30;;;;;;;;;;5092771;28;20469;-72
2021/12/30 04:30:39;;;;;;;0.30;0.30;;;;;;;;;;5093064;28;20498;-75
2021/12/30 04:33:06;;;;;;;0.30;0.30;;;;;;;;;;5092387;28;20524;-74
2021/12/30 04:35:32;;;;;;;0.30;0.30;;;;;;;;;;5092712;28;20431;-74
2021/12/30 04:37:58;;;;;;;0.30;0.30;;;;;;;;;;5092327;28;20447;-73
2021/12/30 04:40:24;;;;;;;0.30;0.30;;;;;;;;;;5111042;28;20420;-73
2021/12/30 04:42:50;;;;;;;0.40;0.40;;;;;;;;;;5096373;28;20427;-72
2021/12/30 04:45:16;;;;;;;0.30;0.30;;;;;;;;;;5095975;28;20428;-72
2021/12/30 04:47:42;;;;;;;0.30;0.30;;;;;;;;;;5095931;28;20447;-73
2021/12/30 04:50:10;;;;;;;0.30;0.30;;;;;;;;;;5095709;28;20523;-73
2021/12/30 04:52:36;;;;;;;0.33;0.33;;;;;;;;;;5096612;28;20509;-73
2021/12/30 04:55:02;;;;;;;0.30;0.30;;;;;;;;;;5095687;28;20499;-72
2021/12/30 04:57:27;;;;;;;0.30;0.30;;;;;;;;;;5095568;28;20416;-73
2021/12/30 04:59:53;;;;;;;0.30;0.30;;;;;;;;;;5095761;28;20413;-72
2021/12/30 05:02:20;;;;;;;0.30;0.30;;;;;;;;;;5095654;28;20409;-72
2021/12/30 05:04:46;;;;;;;0.30;0.30;;;;;;;;;;5095607;28;20916;-73
2021/12/30 05:07:12;;;;;;;0.30;0.30;;;;;;;;;;5111136;28;20747;-72
2021/12/30 05:09:38;;;;;;;0.30;0.30;;;;;;;;;;5095558;28;20409;-72
2021/12/30 05:12:04;;;;;;;0.30;0.30;;;;;;;;;;5095875;28;20476;-73
2021/12/30 05:14:30;;;;;;;0.30;0.30;;;;;;;;;;5095457;28;20435;-73
2021/12/30 05:17:02;;;;;;;0.30;0.30;;;;;;;;;;5095595;28;20916;-73
2021/12/30 05:19:28;;;;;;;0.30;0.30;;;;;;;;;;5096462;28;20399;-74
2021/12/30 05:21:54;;;;;;;0.87;0.30;;;;;;;;;;5095549;28;20466;-72
2021/12/30 05:24:20;;;;;;;0.33;0.33;;;;;;;;;;5095443;28;20948;-72
2021/12/30 05:26:46;;;;;;;0.30;0.30;;;;;;;;;;5095257;28;20413;-73
2021/12/30 05:29:13;;;;;;;0.30;0.30;;;;;;;;;;5095091;28;20442;-73
2021/12/30 05:31:39;;;;;;;0.30;0.30;;;;;;;;;;5095022;28;20459;-73
2021/12/30 05:34:05;;;;;;;1.03;0.57;;;;;;;;;;5095260;28;20409;-73
2021/12/30 05:36:31;;;;;;;0.30;0.30;;;;;;;;;;5110712;28;20939;-72
2021/12/30 05:42:00;;;;;;;1.90;0.63;;;;;;;;;;5094979;28;20392;-73
2021/12/30 05:44:26;;;;;;;1.60;0.37;;;;;;;;;;5094867;28;20425;-72
2021/12/30 05:46:52;;;;;;;0.30;0.30;;;;;;;;;;5095029;28;20498;-73
2021/12/30 05:49:18;;;;;;;0.30;0.30;;;;;;;;;;5094622;28;20893;-73
2021/12/30 05:51:44;;;;;;;0.20;0.20;;;;;;;;;;5093950;28;20486;-73
2021/12/30 05:54:10;;;;;;;0.30;0.30;;;;;;;;;;5094483;28;20496;-72
2021/12/30 05:56:36;;;;;;;0.30;0.30;;;;;;;;;;5094836;28;20478;-73
2021/12/30 05:59:02;;;;;;;0.30;0.30;;;;;;;;;;5094499;28;20417;-73
2021/12/30 06:01:28;;;;;;;0.30;0.30;;;;;;;;;;5094397;28;20420;-74
2021/12/30 06:03:54;;;;;;;0.27;0.27;;;;;;;;;;5094324;28;20417;-72
2021/12/30 06:06:20;;;;;;;0.73;0.57;;;;;;;;;;5093125;28;20428;-75
2021/12/30 06:08:46;;;;;;;0.97;0.40;;;;;;;;;;5094367;28;20459;-72
2021/12/30 06:11:12;;;;;;;0.30;0.30;;;;;;;;;;5094488;28;20533;-74
2021/12/30 06:13:38;;;;;;;0.23;0.23;;;;;;;;;;5094515;28;20909;-75
2021/12/30 06:16:04;;;;;;;0.20;0.20;;;;;;;;;;5094885;28;20420;-72
2021/12/30 06:18:30;;;;;;;0.30;0.30;;;;;;;;;;5093732;28;20408;-73
2021/12/30 06:20:56;;;;;;;0.30;0.30;;;;;;;;;;5094049;28;20512;-73
2021/12/30 06:23:22;;;;;;;0.30;0.30;;;;;;;;;;5094148;28;20848;-72
2021/12/30 06:25:48;;;;;;;0.30;0.30;;;;;;;;;;5094080;28;20444;-73
2021/12/30 06:28:14;;;;;;;0.30;0.30;;;;;;;;;;5093985;28;20415;-73
2021/12/30 06:30:40;;;;;;;0.30;0.30;;;;;;;;;;5093863;28;20464;-73
2021/12/30 06:33:06;;;;;;;0.50;0.40;;;;;;;;;;5093863;28;20408;-74
2021/12/30 06:35:34;;;;;;;0.30;0.30;;;;;;;;;;5093607;28;20420;-74
2021/12/30 06:38:00;;;;;;;0.30;0.30;;;;;;;;;;5093410;28;20423;-72
2021/12/30 06:40:26;;;;;;;0.20;0.20;;;;;;;;;;5093726;28;20463;-72
2021/12/30 06:42:52;;;;;;;0.30;0.30;;;;;;;;;;5093944;28;20421;-74
2021/12/30 06:45:18;;;;;;;0.30;0.30;;;;;;;;;;5093553;28;20424;-73
2021/12/30 06:47:45;;;;;;;0.20;0.20;;;;;;;;;;5093454;28;20507;-74
2021/12/30 06:50:13;;;;;;;0.20;0.20;;;;;;;;;;5093052;28;21010;-73
2021/12/30 06:52:40;;;;;;;0.30;0.30;;;;;;;;;;5093738;28;20425;-72
2021/12/30 06:55:06;;;;;;;1.90;0.30;;;;;;;;;;5093121;28;20532;-73
2021/12/30 06:57:33;;;;;;;0.33;0.33;;;;;;;;;;5093381;28;20470;-72
2021/12/30 06:59:59;;;;;;;1.60;0.30;;;;;;;;;;5093702;28;20416;-74
2021/12/30 07:02:25;;;;;;;0.97;0.30;;;;;;;;;;5093280;28;20766;-73
2021/12/30 07:04:51;;;;;;;0.30;0.30;;;;;;;;;;5092598;28;20516;-73
2021/12/30 07:07:17;;;;;;;0.30;0.30;;;;;;;;;;5093117;28;20416;-73
2021/12/30 07:09:43;;;;;;;0.27;0.27;;;;;;;;;;5093057;28;20458;-73
2021/12/30 07:12:09;;;;;;;0.30;0.30;;;;;;;;;;5093076;28;20468;-73
2021/12/30 07:14:35;;;;;;;0.30;0.30;;;;;;;;;;5093276;28;20774;-73
2021/12/30 07:17:01;;;;;;;0.37;0.37;;;;;;;;;;5093275;28;20822;-72
2021/12/30 07:19:27;;;;;;;0.30;0.30;;;;;;;;;;5092774;28;20869;-72
2021/12/30 07:21:53;;;;;;;0.20;0.20;;;;;;;;;;5092950;28;20417;-72
2021/12/30 07:24:20;;;;;;;0.30;0.30;;;;;;;;;;5092681;28;20416;-74
2021/12/30 07:26:47;;;;;;;1.30;0.30;;;;;;;;;;5093082;28;20984;-73
2021/12/30 07:29:13;;;;;;;0.30;0.30;;;;;;;;;;5093186;28;20419;-72
2021/12/30 07:31:39;;;;;;;0.63;0.40;;;;;;;;;;5092861;28;20475;-73
2021/12/30 07:34:05;;;;;;;0.40;0.40;;;;;;;;;;5093400;28;20428;-72
2021/12/30 07:36:31;;;;;;;0.30;0.30;;;;;;;;;;5092876;28;20439;-63
2021/12/30 07:38:57;;;;;;;0.67;0.40;;;;;;;;;;5092993;28;20447;-72
2021/12/30 07:41:23;;;;;;;0.30;0.30;;;;;;;;;;5093218;28;20775;-72
2021/12/30 07:43:49;;;;;;;0.30;0.30;;;;;;;;;;5092719;28;20503;-71
2021/12/30 07:46:15;;;;;;;0.30;0.30;;;;;;;;;;5092929;28;20428;-72
2021/12/30 07:48:41;;;;;;;0.30;0.30;;;;;;;;;;5093468;28;20417;-71
2021/12/30 07:51:07;;;;;;;1.40;0.40;;;;;;;;;;5092575;28;20511;-71
2021/12/30 07:53:33;;;;;;;0.97;0.97;;;;;;;;;;5093028;28;20496;-71
2021/12/30 07:56:01;;;;;;;0.30;0.30;;;;;;;;;;5093122;28;20405;-71
2021/12/30 07:58:27;;;;;;;0.20;0.20;;;;;;;;;;5092991;28;20404;-72
2021/12/30 08:00:53;;;;;;;0.40;0.40;;;;;;;;;;5092544;28;20512;-72
2021/12/30 08:03:19;;;;;;;0.30;0.30;;;;;;;;;;5092571;28;20771;-71
2021/12/30 08:05:45;;;;;;;0.30;0.30;;;;;;;;;;5092638;28;20789;-71
2021/12/30 08:08:11;;;;;;;0.30;0.30;;;;;;;;;;5092676;28;20957;-71
2021/12/30 08:10:37;;;;;;;0.30;0.30;;;;;;;;;;5092773;28;20563;-71
2021/12/30 08:13:03;;;;;;;0.53;0.53;;;;;;;;;;5092539;28;20501;-71
2021/12/30 08:15:30;;;;;;;0.30;0.30;;;;;;;;;;5110185;28;20455;-72
2021/12/30 08:17:56;;;;;;;0.30;0.30;;;;;;;;;;5096441;28;20408;-73
2021/12/30 08:20:22;;;;;;;0.30;0.30;;;;;;;;;;5096599;28;20762;-73
2021/12/30 08:22:48;;;;;;;3.13;3.07;;;;;;;;;;5096489;28;20744;-73
2021/12/30 08:25:14;;;;;;;1.60;1.60;;;;;;;;;;5096386;28;20412;-71
2021/12/30 08:27:41;;;;;;;7.23;6.60;;;;;;;;;;5096105;28;20423;-72
2021/12/30 08:30:09;;;;;;;5.03;4.73;;;;;;;;;;5096360;28;20413;-71
2021/12/30 08:32:35;;;;;;;1.93;1.90;;;;;;;;;;5096076;28;20439;-72
2021/12/30 08:35:01;;;;;;;4.77;2.77;;;;;;;;;;5096134;28;20985;-71
2021/12/30 08:37:27;;;;;;;0.63;0.63;;;;;;;;;;5096573;28;20473;-71
2021/12/30 08:39:53;;;;;;;0.43;0.43;;;;;;;;;;5095835;28;20896;-71
2021/12/30 08:42:20;;;;;;;0.73;0.40;;;;;;;;;;5096260;28;20469;-71
2021/12/30 08:44:46;;;;;;;0.40;0.40;;;;;;;;;;5095966;28;20503;-71
2021/12/30 08:47:13;;;;;;;0.57;0.57;;;;;;;;;;5095970;28;20491;-72
2021/12/30 08:49:45;;;;;;;0.73;0.60;;;;;;;;;;5095749;28;20420;-71
2021/12/30 08:52:11;;;;;;;0.30;0.30;;;;;;;;;;5095791;28;20471;-71
2021/12/30 08:54:37;;;;;;;0.33;0.33;;;;;;;;;;5095452;28;20794;-72
2021/12/30 08:57:04;;;;;;;0.40;0.40;;;;;;;;;;5096195;28;20512;-71
2021/12/30 08:59:30;;;;;;;0.83;0.83;;;;;;;;;;5095474;28;20409;-72
2021/12/30 09:01:56;;;;;;;0.63;0.63;;;;;;;;;;5111373;28;20439;-72
2021/12/30 09:04:22;;;;;;;0.60;0.60;;;;;;;;;;5095395;28;20514;-72
2021/12/30 09:06:48;;;;;;;0.50;0.50;;;;;;;;;;5095774;28;20421;-71
2021/12/30 09:09:14;;;;;;;0.60;0.60;;;;;;;;;;5095812;28;20412;-72
2021/12/30 09:11:40;;;;;;;0.30;0.30;;;;;;;;;;5095605;28;21051;-73
2021/12/30 09:14:06;;;;;;;0.37;0.37;;;;;;;;;;5095480;28;20404;-72
2021/12/30 09:16:32;;;;;;;0.50;0.50;;;;;;;;;;5095586;28;20720;-71
2021/12/30 09:18:58;;;;;;;1.03;0.40;;;;;;;;;;5095160;28;20909;-72
2021/12/30 09:21:24;;;;;;;0.50;0.50;;;;;;;;;;5095349;28;20503;-73
2021/12/30 09:23:50;;;;;;;0.80;0.80;;;;;;;;;;5110724;28;20440;-71
2021/12/30 09:26:16;;;;;;;0.30;0.30;;;;;;;;;;5094405;28;20920;-71
2021/12/30 09:28:42;;;;;;;0.30;0.30;;;;;;;;;;5095090;28;20553;-70
2021/12/30 09:31:08;;;;;;;0.30;0.30;;;;;;;;;;5095186;28;20476;-70
2021/12/30 09:33:34;;;;;;;0.40;0.40;;;;;;;;;;5094790;28;20413;-71
2021/12/30 09:36:02;;;;;;;2.23;0.63;;;;;;;;;;5095057;28;20470;-71
2021/12/30 09:38:28;;;;;;;0.33;0.33;;;;;;;;;;5095052;28;20529;-71
2021/12/30 09:40:54;;;;;;;0.90;0.90;;;;;;;;;;5095209;28;20417;-71
2021/12/30 09:43:21;;;;;;;7.00;0.50;;;;;;;;;;5094619;28;20417;-71
2021/12/30 09:45:47;;;;;;;1.13;0.60;;;;;;;;;;5094558;28;20424;-71
2021/12/30 09:48:13;;;;;;;1.17;1.13;;;;;;;;;;5094796;28;20459;-71
2021/12/30 09:50:51;;;;;;;0.70;0.70;;;;;;;;;;5094616;28;20475;-71
2021/12/30 09:53:21;;;;;;;1.67;1.63;;;;;;;;;;5094294;28;20413;-71
2021/12/30 09:55:48;;;;;;;1.80;1.17;;;;;;;;;;5094508;28;20513;-71
2021/12/30 09:58:14;;;;;;;0.50;0.50;;;;;;;;;;5094686;28;20766;-72
2021/12/30 10:00:40;;;;;;;0.30;0.30;;;;;;;;;;5094417;28;20972;-71
2021/12/30 10:03:06;;;;;;;0.40;0.40;;;;;;;;;;5094591;28;20511;-71
2021/12/30 10:05:33;;;;;;;0.40;0.40;;;;;;;;;;5094697;28;20413;-71
2021/12/30 10:08:15;;;;;;;0.40;0.40;;;;;;;;;;5094222;28;20419;-71
2021/12/30 10:10:42;;;;;;;0.90;0.50;;;;;;;;;;5094320;28;20463;-71
2021/12/30 10:13:34;;;;;;;1.07;0.97;;;;;;;;;;5109821;28;20428;-73
2021/12/30 10:16:01;;;;;;;0.60;0.60;;;;;;;;;;5091499;28;20419;-72
2021/12/30 10:18:45;;;;;;;0.40;0.40;;;;;;;;;;5094260;28;20416;-72
2021/12/30 10:21:16;;;;;;;0.40;0.40;;;;;;;;;;5094002;28;20831;-71
2021/12/30 10:23:44;;;;;;;0.30;0.30;;;;;;;;;;5094039;28;20413;-71
2021/12/30 10:26:10;;;;;;;0.30;0.30;;;;;;;;;;5093985;28;20416;-72
2021/12/30 10:28:37;;;;;;;0.57;0.40;;;;;;;;;;5094329;28;20877;-70
2021/12/30 10:31:12;;;;;;;0.30;0.30;;;;;;;;;;5093827;28;20577;-71
2021/12/30 10:33:47;;;;;;;0.40;0.40;;;;;;;;;;5093579;28;20448;-71
2021/12/30 10:36:17;;;;;;;0.30;0.30;;;;;;;;;;5109377;28;20935;-72
2021/12/30 10:38:43;;;;;;;0.40;0.40;;;;;;;;;;5093659;28;20482;-71
2021/12/30 10:41:10;;;;;;;0.30;0.30;;;;;;;;;;5093366;28;20451;-75
2021/12/30 10:46:08;;;;;;;0.30;0.30;;;;;;;;;;5093614;28;20408;-72
2021/12/30 10:48:46;;;;;;;0.30;0.30;;;;;;;;;;5093661;28;20503;-70
2021/12/30 10:51:13;;;;;;;0.37;0.37;;;;;;;;;;5093589;28;20544;-71
2021/12/30 10:53:39;;;;;;;0.90;0.90;;;;;;;;;;5093409;28;20454;-72
2021/12/30 10:56:24;;;;;;;0.30;0.30;;;;;;;;;;5093909;28;20435;-71
2021/12/30 10:58:51;;;;;;;0.30;0.30;;;;;;;;;;5108975;28;20791;-71
2021/12/30 11:01:18;;;;;;;0.30;0.30;;;;;;;;;;5093540;28;20413;-72
2021/12/30 11:04:00;;;;;;;0.30;0.30;;;;;;;;;;5093527;28;20439;-74
2021/12/30 11:06:27;;;;;;;0.40;0.40;;;;;;;;;;5094285;28;20413;-71
2021/12/30 11:09:16;;;;;;;0.37;0.37;;;;;;;;;;5093607;28;20507;-73
2021/12/30 11:11:44;;;;;;;0.40;0.40;;;;;;;;;;5085264;28;20511;-71
2021/12/30 11:14:11;;;;;;;0.90;0.90;;;;;;;;;;5093149;28;20465;-72
2021/12/30 11:16:59;;;;;;;0.40;0.40;;;;;;;;;;5093422;28;20927;-71
2021/12/30 11:19:26;;;;;;;0.90;0.90;;;;;;;;;;5093110;28;20444;-71
2021/12/30 11:21:53;;;;;;;3.30;3.20;;;;;;;;;;5093235;28;20819;-71
2021/12/30 11:24:20;;;;;;;1.50;1.50;;;;;;;;;;5093078;28;20424;-72
2021/12/30 11:26:46;;;;;;;0.87;0.87;;;;;;;;;;5093049;28;20416;-71
2021/12/30 11:29:12;;;;;;;0.90;0.90;;;;;;;;;;5093220;28;20981;-71
2021/12/30 11:31:38;;;;;;;0.60;0.60;;;;;;;;;;5092871;28;20471;-72
2021/12/30 11:34:04;;;;;;;0.93;0.93;;;;;;;;;;5092963;28;20914;-71
2021/12/30 11:36:31;;;;;;;0.60;0.60;;;;;;;;;;5108619;28;20810;-71
2021/12/30 11:39:02;;;;;;;1.60;1.60;;;;;;;;;;5092965;28;20748;-71
2021/12/30 11:41:29;;;;;;;1.20;1.20;;;;;;;;;;5092978;28;20405;-72
2021/12/30 11:43:56;;;;;;;2.30;2.30;;;;;;;;;;5108510;28;20425;-71
2021/12/30 11:46:48;;;;;;;2.77;2.67;;;;;;;;;;5092436;28;20424;-71
2021/12/30 11:49:15;;;;;;;0.60;0.60;;;;;;;;;;5090192;28;20505;-72
2021/12/30 11:51:47;;;;;;;0.83;0.83;;;;;;;;;;5096536;28;20468;-71
2021/12/30 11:54:33;;;;;;;0.60;0.60;;;;;;;;;;5096649;28;20498;-70
2021/12/30 11:57:18;;;;;;;0.53;0.53;;;;;;;;;;5097067;28;20472;-73
2021/12/30 11:59:44;;;;;;;0.40;0.40;;;;;;;;;;5140182;22;20542;-73
2021/12/30 12:02:46;;;;;;;0.30;0.30;;;;;;;;;;5009468;28;20432;-71
2021/12/30 12:05:30;;;;;;;0.40;0.40;;;;;;;;;;4966081;28;20461;-72
2021/12/30 12:08:06;;;;;;;0.50;0.50;;;;;;;;;;4989074;28;20467;-71
2021/12/30 12:10:32;;;;;;;0.40;0.40;;;;;;;;;;5010014;28;20432;-71
2021/12/30 12:13:18;;;;;;;0.43;0.43;;;;;;;;;;5009914;28;20936;-72
2021/12/30 12:15:44;;;;;;;0.40;0.40;;;;;;;;;;5009303;28;20530;-71
2021/12/30 12:18:11;;;;;;;0.50;0.50;;;;;;;;;;5010256;28;20587;-71
2021/12/30 12:20:50;;;;;;;0.60;0.30;;;;;;;;;;5008468;28;20443;-71
2021/12/30 12:23:35;;;;;;;0.30;0.30;;;;;;;;;;5008517;28;21431;-71
2021/12/30 12:26:05;;;;;;;0.50;0.50;;;;;;;;;;5008821;28;20432;-71
2021/12/30 12:28:31;;;;;;;0.33;0.33;;;;;;;;;;5010230;28;20513;-72
2021/12/30 12:30:57;;;;;;;0.30;0.30;;;;;;;;;;5010478;28;20869;-71
2021/12/30 12:33:28;;;;;;;0.40;0.40;;;;;;;;;;5011087;28;20448;-71
2021/12/30 12:35:54;;;;;;;0.40;0.40;;;;;;;;;;5009099;28;20435;-71
2021/12/30 12:38:39;;;;;;;2.03;0.50;;;;;;;;;;5011086;28;20509;-73
2021/12/30 12:41:23;;;;;;;0.40;0.40;;;;;;;;;;5009400;28;20494;-72
2021/12/30 12:43:50;;;;;;;0.50;0.50;;;;;;;;;;5007196;28;20998;-72
2021/12/30 12:46:16;;;;;;;0.30;0.30;;;;;;;;;;5006518;28;20443;-72
2021/12/30 12:48:42;;;;;;;0.80;0.60;;;;;;;;;;5009293;28;20432;-72
2021/12/30 12:51:08;;;;;;;1.23;0.30;;;;;;;;;;5009654;28;20602;-73
2021/12/30 12:53:36;;;;;;;0.37;0.37;;;;;;;;;;5010143;28;20874;-71
2021/12/30 12:56:05;;;;;;;0.73;0.40;;;;;;;;;;5010221;28;21196;-72
2021/12/30 12:58:35;;;;;;;10.27;0.40;;;;;;;;;;5010926;28;20432;-72
2021/12/30 13:01:01;;;;;;;2.13;2.13;;;;;;;;;;5009388;28;20482;-72
2021/12/30 13:03:28;;;;;;;1.30;1.30;;;;;;;;;;5008968;28;20440;-72
2021/12/30 13:06:01;;;;;;;8.03;0.70;;;;;;;;;;5009335;28;20443;-73
2021/12/30 13:08:28;;;;;;;0.50;0.50;;;;;;;;;;5010054;28;20436;-71
2021/12/30 13:10:54;;;;;;;0.60;0.60;;;;;;;;;;5010251;28;20519;-72
2021/12/30 13:13:32;;;;;;;0.40;0.40;;;;;;;;;;5007728;28;20925;-72
2021/12/30 13:15:59;;;;;;;1.03;0.67;;;;;;;;;;5009079;28;20527;-72
2021/12/30 13:18:26;;;;;;;0.30;0.30;;;;;;;;;;5009560;28;20479;-72
2021/12/30 13:20:52;;;;;;;0.50;0.50;;;;;;;;;;5009733;28;20972;-72
2021/12/30 13:23:28;;;;;;;0.43;0.43;;;;;;;;;;5009025;28;20948;-72
2021/12/30 13:25:58;;;;;;;4.97;1.00;;;;;;;;;;5010237;28;20447;-71
2021/12/30 13:28:24;;;;;;;2.07;0.57;;;;;;;;;;5009249;28;20450;-72
2021/12/30 13:30:50;;;;;;;0.40;0.40;;;;;;;;;;5010114;28;20594;-71
2021/12/30 13:33:16;;;;;;;1.00;1.00;;;;;;;;;;5008985;28;20435;-72
2021/12/30 13:35:43;;;;;;;0.67;0.67;;;;;;;;;;5008695;28;20794;-72
2021/12/30 13:38:12;;;;;;;0.60;0.60;;;;;;;;;;5006639;28;20463;-72
2021/12/30 13:40:40;;;;;;;0.80;0.80;;;;;;;;;;5010566;28;20515;-72
2021/12/30 13:43:12;;;;;;;0.40;0.40;;;;;;;;;;5009737;28;20425;-72
2021/12/30 13:45:48;;;;;;;2.00;0.47;;;;;;;;;;4992176;28;20776;-72
2021/12/30 13:48:27;;;;;;;0.40;0.40;;;;;;;;;;5007880;28;20539;-72
2021/12/30 13:51:04;;;;;;;0.80;0.80;;;;;;;;;;5009894;28;20470;-72
2021/12/30 13:53:31;;;;;;;0.40;0.40;;;;;;;;;;5008034;28;20447;-72
2021/12/30 13:55:58;;;;;;;0.40;0.40;;;;;;;;;;5009537;28;20432;-72
2021/12/30 13:58:26;;;;;;;0.57;0.53;;;;;;;;;;5007854;28;20436;-73
2021/12/30 14:00:56;;;;;;;0.40;0.40;;;;;;;;;;4990723;28;20820;-72
2021/12/30 14:03:27;;;;;;;0.67;0.67;;;;;;;;;;5008141;28;20510;-72
2021/12/30 14:06:04;;;;;;;4.40;1.00;;;;;;;;;;5007552;28;20475;-72
2021/12/30 14:08:31;;;;;;;0.60;0.60;;;;;;;;;;5008684;28;20831;-72
2021/12/30 14:11:04;;;;;;;0.50;0.50;;;;;;;;;;5007490;28;20508;-72
2021/12/30 14:13:35;;;;;;;0.97;0.67;;;;;;;;;;5003044;28;20806;-73
2021/12/30 14:16:03;;;;;;;0.37;0.37;;;;;;;;;;5008490;28;20469;-72
2021/12/30 14:18:30;;;;;;;2.73;0.73;;;;;;;;;;5004184;28;20870;-72
2021/12/30 14:20:56;;;;;;;0.40;0.40;;;;;;;;;;5006637;28;20848;-72
2021/12/30 14:23:32;;;;;;;0.77;0.53;;;;;;;;;;5005827;28;20944;-72
2021/12/30 14:26:08;;;;;;;2.73;0.50;;;;;;;;;;5008129;28;20494;-72
2021/12/30 14:28:34;;;;;;;0.40;0.40;;;;;;;;;;5006428;28;20431;-72
2021/12/30 14:31:00;;;;;;;1.00;0.50;;;;;;;;;;5006697;28;20477;-72
2021/12/30 14:33:28;;;;;;;6.30;0.70;;;;;;;;;;5007509;28;20523;-72
2021/12/30 14:36:09;;;;;;;0.30;0.30;;;;;;;;;;5008721;28;20948;-74
2021/12/30 14:38:35;;;;;;;0.40;0.40;;;;;;;;;;5006970;28;20448;-72
2021/12/30 14:41:12;;;;;;;0.40;0.40;;;;;;;;;;5009974;28;20432;-72
2021/12/30 14:43:57;;;;;;;11.77;0.60;;;;;;;;;;5006738;28;20432;-72
2021/12/30 14:46:23;;;;;;;0.80;0.53;;;;;;;;;;5009320;28;20436;-72
2021/12/30 14:48:59;;;;;;;0.40;0.40;;;;;;;;;;5008085;28;20424;-72
2021/12/30 14:51:30;;;;;;;0.60;0.60;;;;;;;;;;5009642;28;20963;-71
2021/12/30 14:53:56;;;;;;;0.30;0.30;;;;;;;;;;5005888;28;20531;-71